Time;durP1;ratioP1;P1;durP2;ratioP2;P2;SDS_P1;SDS_P2;PMS_P1;PMS_P2;Temp;Humidity;BMP_temperature;BMP_pressure;BME280_temperature;BME280_humidity;BME280_pressure;Samples;Min_cycle;Max_cycle;Signal;HPM_P1;HPM_P2
2021/11/26 00:00:03;;;;;;;;;;;;;;;4.84;100.00;98154.03;4842081;29;19938;-66
2021/11/26 00:57:09;;;;;;;;;;;;;;;5.03;100.00;98074.44;4988825;28;19986;-66
2021/11/26 00:59:37;;;;;;;;;;;;;;;5.21;100.00;98072.31;4987989;28;19929;-67
2021/11/26 01:02:06;;;;;;;;;;;;;;;5.26;100.00;98062.84;4992327;28;19926;-67
2021/11/26 01:04:38;;;;;;;;;;;;;;;4.82;100.00;98052.03;4977870;28;20398;-67
2021/11/26 01:07:06;;;;;;;;;;;;;;;5.05;100.00;98050.63;4976012;28;19933;-67
2021/11/26 01:09:33;;;;;;;;;;;;;;;4.77;100.00;98051.31;4989547;28;19922;-66
2021/11/26 01:12:16;;;;;;;;;;;;;;;5.09;100.00;98042.03;4976386;28;20595;-66
2021/11/26 01:15:05;;;;;;;;;;;;;;;5.41;100.00;98039.47;4991702;28;19976;-66
2021/11/26 01:17:32;;;;;;;;;;;;;;;4.88;100.00;98028.94;4997991;28;20398;-67
2021/11/26 01:19:59;;;;;;;;;;;;;;;5.32;100.00;98019.28;5006280;28;19936;-67
2021/11/26 01:22:27;;;;;;;;;;;;;;;5.50;100.00;98015.41;5006748;28;19921;-66
2021/11/26 01:24:56;;;;;;;;;;;;;;;5.29;100.00;98004.06;4988837;28;20744;-67
2021/11/26 01:27:22;;;;;;;;;;;;;;;5.55;100.00;97999.94;5007063;28;19921;-66
2021/11/26 01:29:54;;;;;;;;;;;;;;;5.38;100.00;98001.25;4999991;28;20004;-67
2021/11/26 01:32:24;;;;;;;;;;;;;;;5.72;100.00;97994.34;4999912;28;20758;-66
2021/11/26 01:35:10;;;;;;;;;;;;;;;4.76;100.00;97990.94;5004411;28;19922;-67
2021/11/26 01:37:56;;;;;;;;;;;;;;;5.42;100.00;97990.06;5003211;28;20422;-67
2021/11/26 01:40:28;;;;;;;;;;;;;;;5.58;100.00;97980.25;4984765;28;20327;-66
2021/11/26 01:42:56;;;;;;;;;;;;;;;5.61;100.00;97974.22;5003774;28;19983;-66
2021/11/26 01:45:22;;;;;;;;;;;;;;;5.81;100.00;97966.81;4988805;28;19925;-66
2021/11/26 01:47:49;;;;;;;;;;;;;;;5.58;100.00;97956.44;5005973;28;20352;-66
2021/11/26 01:50:18;;;;;;;;;;;;;;;5.61;100.00;97943.56;4986305;28;19925;-66
2021/11/26 01:52:44;;;;;;;;;;;;;;;5.53;100.00;97937.88;5008582;28;20004;-67
2021/11/26 01:55:12;;;;;;;;;;;;;;;5.34;100.00;97940.13;5008585;28;20412;-66
2021/11/26 01:57:39;;;;;;;;;;;;;;;5.43;100.00;97933.03;5005559;28;19917;-66
2021/11/26 02:00:27;;;;;;;;;;;;;;;5.58;100.00;97925.78;5004814;28;20884;-66
2021/11/26 02:02:55;;;;;;;;;;;;;;;5.29;100.00;97917.28;4983711;28;20004;-66
2021/11/26 02:05:43;;;;;;;;;;;;;;;5.48;100.00;97912.47;5006489;28;19924;-66
2021/11/26 02:08:10;;;;;;;;;;;;;;;5.44;100.00;97906.59;5005679;28;19922;-66
2021/11/26 02:10:40;;;;;;;;;;;;;;;5.48;100.00;97901.41;5008301;28;19932;-66
2021/11/26 02:13:05;;;;;;;;;;;;;;;5.19;100.00;97895.41;4985652;28;20384;-66
2021/11/26 02:15:39;;;;;;;;;;;;;;;5.66;100.00;97895.75;5003376;28;20348;-67
2021/11/26 02:18:08;;;;;;;;;;;;;;;5.31;100.00;97895.06;5006069;28;20402;-66
2021/11/26 02:20:36;;;;;;;;;;;;;;;5.54;100.00;97885.91;4988443;28;20459;-66
2021/11/26 02:23:04;;;;;;;;;;;;;;;5.27;100.00;97888.41;5003070;28;19921;-66
2021/11/26 02:25:54;;;;;;;;;;;;;;;5.14;100.00;97885.34;5008518;28;20392;-66
2021/11/26 02:28:21;;;;;;;;;;;;;;;5.16;100.00;97870.00;5004491;28;19919;-66
2021/11/26 02:30:47;;;;;;;;;;;;;;;5.16;100.00;97870.00;5007242;28;20692;-66
2021/11/26 02:33:17;;;;;;;;;;;;;;;5.02;100.00;97873.75;5006563;28;19923;-66
2021/11/26 02:35:45;;;;;;;;;;;;;;;5.38;100.00;97865.94;5000602;28;20364;-66
2021/11/26 02:38:36;;;;;;;;;;;;;;;5.41;100.00;97865.00;5003509;28;20869;-66
2021/11/26 02:41:15;;;;;;;;;;;;;;;5.36;100.00;97857.50;5000606;28;20332;-66
2021/11/26 02:43:50;;;;;;;;;;;;;;;5.30;100.00;97857.66;5005339;28;19917;-66
2021/11/26 02:46:43;;;;;;;;;;;;;;;5.39;100.00;97841.25;5003873;28;19921;-66
2021/11/26 02:49:11;;;;;;;;;;;;;;;5.41;100.00;97844.59;5001750;28;19917;-67
2021/11/26 02:51:38;;;;;;;;;;;;;;;5.39;100.00;97836.13;5008861;28;19917;-68
2021/11/26 02:54:14;;;;;;;;;;;;;;;4.86;100.00;97836.81;5044547;28;20009;-67
2021/11/26 02:57:19;;;;;;;;;;;;;;;4.93;100.00;97832.38;5029201;28;20469;-67
2021/11/26 03:00:08;;;;;;;;;;;;;;;5.00;100.00;97836.41;5026491;28;20026;-67
2021/11/26 03:02:34;;;;;;;;;;;;;;;4.90;100.00;97830.72;5044806;28;21075;-68
2021/11/26 03:05:01;;;;;;;;;;;;;;;4.93;100.00;97823.00;5045329;28;19925;-67
2021/11/26 03:07:31;;;;;;;;;;;;;;;4.51;100.00;97825.81;5044628;28;19923;-67
2021/11/26 03:10:21;;;;;;;;;;;;;;;4.83;100.00;97811.38;5041815;28;20255;-67
2021/11/26 03:12:58;;;;;;;;;;;;;;;4.88;100.00;97809.53;5018472;28;19963;-67
2021/11/26 03:15:30;;;;;;;;;;;;;;;4.83;100.00;97801.16;5045179;28;19991;-67
2021/11/26 03:17:58;;;;;;;;;;;;;;;5.13;100.00;97801.16;5043596;28;20102;-67
2021/11/26 03:20:24;;;;;;;;;;;;;;;5.01;100.00;97800.63;5026222;28;19927;-67
2021/11/26 03:22:51;;;;;;;;;;;;;;;4.81;100.00;97798.69;5012095;28;20454;-67
2021/11/26 03:25:23;;;;;;;;;;;;;;;4.98;100.00;97798.19;4995533;28;20063;-67
2021/11/26 03:28:10;;;;;;;;;;;;;;;4.86;100.00;97800.22;4981988;28;19917;-68
2021/11/26 03:30:40;;;;;;;;;;;;;;;4.82;100.00;97796.94;5007289;28;19953;-68
2021/11/26 03:33:11;;;;;;;;;;;;;;;5.02;100.00;97794.66;4989164;28;20384;-67
2021/11/26 03:35:37;;;;;;;;;;;;;;;5.06;100.00;97792.00;5006511;28;19921;-67
2021/11/26 03:38:05;;;;;;;;;;;;;;;5.07;100.00;97789.44;5002295;28;19914;-67
2021/11/26 03:40:53;;;;;;;;;;;;;;;4.95;100.00;97782.13;4995382;28;19925;-67
2021/11/26 03:43:40;;;;;;;;;;;;;;;4.95;100.00;97788.06;4997426;28;20376;-67
2021/11/26 03:46:12;;;;;;;;;;;;;;;5.13;100.00;97779.06;5002364;28;19961;-68
2021/11/26 03:48:42;;;;;;;;;;;;;;;5.16;100.00;97768.75;4997530;28;20129;-68
2021/11/26 03:51:17;;;;;;;;;;;;;;;5.31;100.00;97764.88;4997985;28;20008;-67
2021/11/26 03:53:50;;;;;;;;;;;;;;;5.27;100.00;97760.75;5000759;28;20323;-67
2021/11/26 03:59:23;;;;;;;;;;;;;;;4.87;100.00;97751.72;4915686;29;19973;-67
2021/11/26 04:01:50;;;;;;;;;;;;;;;4.95;100.00;97739.59;4994761;28;19925;-68
2021/11/26 04:04:15;;;;;;;;;;;;;;;5.07;100.00;97737.56;4997258;28;19921;-68
2021/11/26 04:06:42;;;;;;;;;;;;;;;4.87;100.00;97741.53;4997996;28;20070;-68
2021/11/26 04:09:09;;;;;;;;;;;;;;;4.92;100.00;97743.94;5000577;28;20428;-67
2021/11/26 04:11:41;;;;;;;;;;;;;;;5.26;100.00;97740.38;4998246;28;19922;-68
2021/11/26 04:14:07;;;;;;;;;;;;;;;5.14;100.00;97733.94;5005089;28;19917;-67
2021/11/26 04:16:39;;;;;;;;;;;;;;;5.15;100.00;97730.50;5003485;28;19928;-67
2021/11/26 04:19:04;;;;;;;;;;;;;;;5.27;100.00;97719.06;4991517;28;19983;-68
2021/11/26 04:21:31;;;;;;;;;;;;;;;5.14;100.00;97723.72;4999276;28;19925;-68
2021/11/26 04:23:57;;;;;;;;;;;;;;;5.22;100.00;97717.53;4996977;28;19917;-68
2021/11/26 04:26:26;;;;;;;;;;;;;;;5.25;100.00;97714.03;5003331;28;19941;-67
2021/11/26 04:28:52;;;;;;;;;;;;;;;5.31;100.00;97703.59;4983918;28;20312;-65
2021/11/26 04:31:18;;;;;;;;;;;;;;;5.21;100.00;97707.34;5003159;28;19931;-68
2021/11/26 04:33:44;;;;;;;;;;;;;;;5.25;100.00;97696.16;4980512;28;19921;-68
2021/11/26 04:36:09;;;;;;;;;;;;;;;4.96;100.00;97690.22;4981543;28;19913;-68
2021/11/26 04:38:37;;;;;;;;;;;;;;;4.83;100.00;97688.94;5000621;28;19979;-68
2021/11/26 04:41:04;;;;;;;;;;;;;;;5.03;100.00;97686.59;5001737;28;20304;-68
2021/11/26 04:43:31;;;;;;;;;;;;;;;4.87;100.00;97685.41;4993749;28;19918;-67
2021/11/26 04:46:00;;;;;;;;;;;;;;;5.33;100.00;97678.88;4995447;28;19924;-67
2021/11/26 04:48:33;;;;;;;;;;;;;;;5.26;100.00;97667.19;5010633;28;19948;-68
2021/11/26 04:51:04;;;;;;;;;;;;;;;5.10;100.00;97668.56;5013238;28;19913;-68
2021/11/26 04:53:33;;;;;;;;;;;;;;;4.80;100.00;97658.44;5007664;28;19923;-68
2021/11/26 04:56:13;;;;;;;;;;;;;;;5.05;100.00;97657.69;5008017;28;19979;-68
2021/11/26 04:58:43;;;;;;;;;;;;;;;5.18;100.00;97648.75;5011284;28;19961;-69
2021/11/26 05:01:10;;;;;;;;;;;;;;;5.29;100.00;97644.13;5016169;28;20657;-68
2021/11/26 05:03:59;;;;;;;;;;;;;;;5.20;100.00;97636.75;4997433;28;19919;-68
2021/11/26 05:06:34;;;;;;;;;;;;;;;5.16;100.00;97625.00;5012017;28;19913;-67
2021/11/26 05:09:05;;;;;;;;;;;;;;;5.15;100.00;97625.88;5012441;28;19968;-68
2021/11/26 05:11:33;;;;;;;;;;;;;;;5.41;100.00;97615.66;4994862;28;19913;-68
2021/11/26 05:14:02;;;;;;;;;;;;;;;5.01;100.00;97619.47;5012748;28;19919;-67
2021/11/26 05:16:27;;;;;;;;;;;;;;;5.16;100.00;97614.78;5011972;28;19914;-69
2021/11/26 05:19:08;;;;;;;;;;;;;;;5.42;100.00;97612.19;5010104;28;19967;-68
2021/11/26 05:21:36;;;;;;;;;;;;;;;5.18;100.00;97608.75;5011163;28;20432;-67
2021/11/26 05:24:07;;;;;;;;;;;;;;;5.21;100.00;97605.25;5009351;28;19914;-64
2021/11/26 05:26:47;;;;;;;;;;;;;;;5.49;100.00;97602.59;5011591;28;19952;-53
2021/11/26 05:29:13;;;;;;;;;;;;;;;5.40;100.00;97602.91;5012321;28;19971;-67
2021/11/26 05:31:42;;;;;;;;;;;;;;;5.33;100.00;97596.34;5011666;28;19917;-68
2021/11/26 05:34:11;;;;;;;;;;;;;;;5.31;100.00;97578.53;5007598;28;19914;-67
2021/11/26 05:36:50;;;;;;;;;;;;;;;5.15;100.00;97578.22;5011209;28;20014;-67
2021/11/26 05:39:40;;;;;;;;;;;;;;;5.18;100.00;97578.13;5011254;28;19975;-68
2021/11/26 05:42:26;;;;;;;;;;;;;;;5.39;100.00;97566.34;5015860;28;20347;-69
2021/11/26 05:45:18;;;;;;;;;;;;;;;5.37;100.00;97560.47;5012666;28;19961;-69
2021/11/26 05:48:07;;;;;;;;;;;;;;;5.48;100.00;97559.28;4983845;28;19913;-67
2021/11/26 05:50:39;;;;;;;;;;;;;;;5.63;100.00;97556.16;5014785;28;19924;-67
2021/11/26 05:53:29;;;;;;;;;;;;;;;4.98;100.00;97554.97;4965871;28;19925;-70
2021/11/26 05:56:07;;;;;;;;;;;;;;;5.20;100.00;97552.53;4957390;28;19923;-69
2021/11/26 05:58:44;;;;;;;;;;;;;;;5.48;100.00;97554.16;4998325;28;20006;-69
2021/11/26 06:01:22;;;;;;;;;;;;;;;5.61;100.00;97546.03;5036219;28;19917;-69
2021/11/26 06:03:53;;;;;;;;;;;;;;;5.64;100.00;97539.97;4996407;28;20008;-69
2021/11/26 06:07:00;;;;;;;;;;;;;;;5.14;100.00;97542.56;5026155;28;20402;-68
2021/11/26 06:12:36;;;;;;;;;;;;;;;4.94;100.00;97546.59;5030944;28;20051;-69
2021/11/26 06:15:14;;;;;;;;;;;;;;;5.22;100.00;97540.56;5031985;28;19937;-68
2021/11/26 06:17:44;;;;;;;;;;;;;;;5.41;100.00;97549.25;5031034;28;20315;-68
2021/11/26 06:20:13;;;;;;;;;;;;;;;4.96;100.00;97539.72;5035638;28;19975;-69
2021/11/26 06:23:07;;;;;;;;;;;;;;;4.68;100.00;97542.34;5031258;28;19921;-66
2021/11/26 06:25:37;;;;;;;;;;;;;;;5.14;100.00;97545.94;5029620;28;19953;-68
2021/11/26 06:28:08;;;;;;;;;;;;;;;5.54;100.00;97539.47;5024891;28;20016;-68
2021/11/26 06:30:40;;;;;;;;;;;;;;;5.11;100.00;97537.53;5027786;28;19913;-69
2021/11/26 06:33:07;;;;;;;;;;;;;;;5.14;100.00;97534.91;5013643;28;19913;-68
2021/11/26 06:35:52;;;;;;;;;;;;;;;5.43;100.00;97534.72;5027542;28;19913;-68
2021/11/26 06:38:33;;;;;;;;;;;;;;;5.82;100.00;97529.09;5029890;28;19966;-65
2021/11/26 06:41:01;;;;;;;;;;;;;;;5.58;100.00;97514.66;5028630;28;19921;-68
2021/11/26 06:43:33;;;;;;;;;;;;;;;6.01;100.00;97516.47;5030238;28;19920;-68
2021/11/26 06:46:00;;;;;;;;;;;;;;;5.78;100.00;97506.25;5027754;28;19920;-68
2021/11/26 06:48:27;;;;;;;;;;;;;;;6.31;100.00;97497.50;5030924;28;19960;-69
2021/11/26 06:50:53;;;;;;;;;;;;;;;5.87;100.00;97500.81;5033871;28;19962;-68
2021/11/26 06:53:19;;;;;;;;;;;;;;;6.08;100.00;97489.81;5036934;28;19968;-68
2021/11/26 06:56:07;;;;;;;;;;;;;;;5.66;100.00;97487.13;5019204;28;19967;-67
2021/11/26 06:58:35;;;;;;;;;;;;;;;5.56;100.00;97481.50;5011372;28;19959;-68
2021/11/26 07:01:10;;;;;;;;;;;;;;;5.51;100.00;97483.38;5008599;28;19969;-69
2021/11/26 07:03:39;;;;;;;;;;;;;;;5.81;100.00;97483.97;5009988;28;20024;-68
2021/11/26 07:06:39;;;;;;;;;;;;;;;5.37;100.00;97481.31;5012874;28;20331;-68
2021/11/26 07:09:07;;;;;;;;;;;;;;;4.96;100.00;97483.59;4998312;28;20392;-68
2021/11/26 07:11:34;;;;;;;;;;;;;;;4.90;100.00;97488.06;5012857;28;20371;-68
2021/11/26 07:14:24;;;;;;;;;;;;;;;4.84;100.00;97490.84;4978634;28;19917;-68
2021/11/26 07:19:46;;;;;;;;;;;;;;;4.94;100.00;97503.22;4996798;28;19968;-69
2021/11/26 07:22:14;;;;;;;;;;;;;;;4.63;100.00;97508.50;4982118;28;19928;-67
2021/11/26 07:24:41;;;;;;;;;;;;;;;4.59;100.00;97510.31;5002912;28;21335;-67
2021/11/26 07:27:20;;;;;;;;;;;;;;;4.71;100.00;97508.25;5004730;28;19957;-67
2021/11/26 07:29:46;;;;;;;;;;;;;;;4.49;100.00;97506.38;5002404;28;20637;-67
2021/11/26 07:32:12;;;;;;;;;;;;;;;4.72;100.00;97507.34;4999541;28;20004;-66
2021/11/26 07:35:00;;;;;;;;;;;;;;;4.69;100.00;97497.25;4998799;28;19921;-67
2021/11/26 07:37:47;;;;;;;;;;;;;;;4.97;100.00;97497.19;4997876;28;19917;-66
2021/11/26 07:43:24;;;;;;;;;;;;;;;4.58;100.00;97506.09;5000087;28;20048;-66
2021/11/26 07:45:51;;;;;;;;;;;;;;;4.41;100.00;97500.69;4996491;28;20020;-66
2021/11/26 07:48:19;;;;;;;;;;;;;;;4.40;100.00;97496.47;4981308;28;19957;-65
2021/11/26 07:51:06;;;;;;;;;;;;;;;4.64;100.00;97499.13;5000708;28;20372;-66
2021/11/26 07:53:35;;;;;;;;;;;;;;;4.39;100.00;97489.72;4995225;28;19975;-67
2021/11/26 07:56:01;;;;;;;;;;;;;;;4.35;100.00;97496.63;5004446;28;19922;-67
2021/11/26 07:58:28;;;;;;;;;;;;;;;4.43;100.00;97491.28;4998961;28;19925;-66
2021/11/26 08:00:55;;;;;;;;;;;;;;;4.50;100.00;97494.47;4999711;28;19941;-66
2021/11/26 08:03:24;;;;;;;;;;;;;;;4.62;100.00;97488.97;4981100;28;20527;-67
2021/11/26 08:06:08;;;;;;;;;;;;;;;4.85;100.00;97483.13;4995437;28;19921;-66
2021/11/26 08:08:34;;;;;;;;;;;;;;;5.05;100.00;97474.81;4997660;28;19925;-67
2021/11/26 08:11:00;;;;;;;;;;;;;;;4.64;100.00;97469.38;4999411;28;19913;-66
2021/11/26 08:16:32;;;;;;;;;;;;;;;4.50;100.00;97469.00;5006311;28;20407;-66
2021/11/26 08:19:01;;;;;;;;;;;;;;;4.67;100.00;97461.59;5009362;28;19924;-66
2021/11/26 08:21:27;;;;;;;;;;;;;;;4.51;100.00;97460.44;4994919;28;19917;-66
2021/11/26 08:23:54;;;;;;;;;;;;;;;4.43;100.00;97453.06;5007030;28;19924;-66
2021/11/26 08:26:25;;;;;;;;;;;;;;;4.31;100.00;97451.75;5002783;28;19918;-66
2021/11/26 08:29:03;;;;;;;;;;;;;;;3.88;100.00;97447.16;4997345;28;19963;-66
2021/11/26 08:31:33;;;;;;;;;;;;;;;4.16;100.00;97458.13;5011731;28;19920;-67
2021/11/26 08:34:13;;;;;;;;;;;;;;;4.03;100.00;97456.84;5041109;28;20311;-66
2021/11/26 08:36:44;;;;;;;;;;;;;;;4.43;100.00;97450.50;5047118;28;20016;-66
2021/11/26 08:39:23;;;;;;;;;;;;;;;5.07;100.00;97441.59;5019552;28;19917;-66
2021/11/26 08:41:53;;;;;;;;;;;;;;;4.59;100.00;97441.47;5040065;28;19960;-66
2021/11/26 08:44:38;;;;;;;;;;;;;;;4.75;100.00;97436.69;5044399;28;20926;-66
2021/11/26 08:47:11;;;;;;;;;;;;;;;4.72;100.00;97428.31;5048056;28;19960;-66
2021/11/26 08:49:48;;;;;;;;;;;;;;;4.69;100.00;97420.78;5037824;28;20283;-66
2021/11/26 08:52:14;;;;;;;;;;;;;;;5.00;100.00;97420.56;5051386;28;20059;-66
2021/11/26 08:54:43;;;;;;;;;;;;;;;4.96;100.00;97419.81;5030469;28;20107;-67
2021/11/26 08:57:39;;;;;;;;;;;;;;;5.65;100.00;97412.19;5046730;28;20818;-65
2021/11/26 09:00:09;;;;;;;;;;;;;;;5.57;100.00;97403.19;5043103;28;19921;-66
2021/11/26 09:02:37;;;;;;;;;;;;;;;5.40;100.00;97388.47;5035103;28;19924;-66
2021/11/26 09:05:10;;;;;;;;;;;;;;;4.85;100.00;97383.66;5015247;28;20403;-67
2021/11/26 09:10:44;;;;;;;;;;;;;;;5.28;100.00;97374.47;5009806;28;19928;-66
2021/11/26 09:13:36;;;;;;;;;;;;;;;5.21;100.00;97373.03;5032071;28;20287;-67
2021/11/26 09:16:14;;;;;;;;;;;;;;;4.78;100.00;97361.81;5044982;28;19969;-66
2021/11/26 09:18:41;;;;;;;;;;;;;;;5.11;100.00;97371.69;5047597;28;20039;-67
2021/11/26 09:21:16;;;;;;;;;;;;;;;5.37;100.00;97360.53;5047554;28;20015;-67
2021/11/26 09:23:49;;;;;;;;;;;;;;;4.89;100.00;97359.69;5031968;28;19920;-66
2021/11/26 09:26:24;;;;;;;;;;;;;;;5.26;100.00;97345.59;5047680;28;19916;-66
2021/11/26 09:28:51;;;;;;;;;;;;;;;5.03;100.00;97344.72;5047025;28;20379;-67
2021/11/26 09:31:50;;;;;;;;;;;;;;;5.22;100.00;97336.41;5045429;28;19960;-67
2021/11/26 09:34:17;;;;;;;;;;;;;;;5.17;100.00;97330.63;5048536;28;19958;-67
2021/11/26 09:36:46;;;;;;;;;;;;;;;5.05;100.00;97331.09;5047674;28;21193;-66
2021/11/26 09:39:31;;;;;;;;;;;;;;;5.15;100.00;97322.19;5046603;28;19921;-66
2021/11/26 09:42:01;;;;;;;;;;;;;;;5.28;100.00;97325.97;5035706;28;19923;-67
2021/11/26 09:44:43;;;;;;;;;;;;;;;4.86;100.00;97319.00;5003359;28;19925;-65
2021/11/26 09:47:14;;;;;;;;;;;;;;;5.23;100.00;97315.94;5000903;28;19917;-67
2021/11/26 09:49:48;;;;;;;;;;;;;;;5.53;100.00;97309.72;4999140;28;19917;-67
2021/11/26 09:52:40;;;;;;;;;;;;;;;4.77;100.00;97304.03;5006654;28;20071;-66
2021/11/26 09:55:07;;;;;;;;;;;;;;;5.28;100.00;97304.72;4983650;28;19925;-66
2021/11/26 09:57:38;;;;;;;;;;;;;;;5.36;100.00;97295.88;5000475;28;19923;-67
2021/11/26 10:00:07;;;;;;;;;;;;;;;5.31;100.00;97287.56;5000625;28;20272;-67
2021/11/26 10:03:04;;;;;;;;;;;;;;;4.49;100.00;97297.34;4995858;28;19928;-67
2021/11/26 10:05:38;;;;;;;;;;;;;;;4.57;100.00;97287.72;5000046;28;19924;-67
2021/11/26 10:08:26;;;;;;;;;;;;;;;4.82;100.00;97284.31;4999960;28;19957;-68
2021/11/26 10:11:11;;;;;;;;;;;;;;;5.05;100.00;97267.31;5014419;28;19917;-67
2021/11/26 10:13:39;;;;;;;;;;;;;;;5.16;100.00;97262.63;5000834;28;19917;-68
2021/11/26 10:16:09;;;;;;;;;;;;;;;5.15;100.00;97250.75;4998144;28;19917;-67
2021/11/26 10:18:39;;;;;;;;;;;;;;;5.23;100.00;97249.56;4969933;28;19980;-69
2021/11/26 10:21:13;;;;;;;;;;;;;;;5.41;100.00;97237.81;4975234;28;20067;-68
2021/11/26 10:24:07;;;;;;;;;;;;;;;5.09;100.00;97231.44;4981216;28;20357;-68
2021/11/26 10:27:03;;;;;;;;;;;;;;;5.26;100.00;97227.38;4983382;28;19917;-67
2021/11/26 10:29:57;;;;;;;;;;;;;;;5.27;100.00;97214.56;4978399;28;19924;-67
2021/11/26 10:32:23;;;;;;;;;;;;;;;5.32;100.00;97209.28;4979046;28;20054;-68
2021/11/26 10:35:10;;;;;;;;;;;;;;;5.18;100.00;97209.81;4980347;28;20042;-68
2021/11/26 10:37:36;;;;;;;;;;;;;;;5.35;100.00;97201.50;4959255;28;19925;-69
2021/11/26 10:43:35;;;;;;;;;;;;;;;5.34;100.00;97185.34;4979943;28;19924;-68
2021/11/26 10:46:42;;;;;;;;;;;;;;;5.44;100.00;97185.81;4975434;28;19917;-68
2021/11/26 11:00:13;;;;;;;;;;;;;;;5.20;100.00;97149.31;4980715;28;19984;-69
2021/11/26 11:02:50;;;;;;;;;;;;;;;5.07;100.00;97136.25;4980371;28;19939;-68
2021/11/26 11:05:22;;;;;;;;;;;;;;;5.40;100.00;97131.47;4980246;28;20360;-68
2021/11/26 11:07:49;;;;;;;;;;;;;;;5.52;100.00;97127.63;4980427;28;19964;-67
2021/11/26 11:10:29;;;;;;;;;;;;;;;5.19;100.00;97124.72;4963217;28;19918;-68
2021/11/26 11:13:00;;;;;;;;;;;;;;;5.23;100.00;97116.06;4954013;28;19924;-68
2021/11/26 11:15:29;;;;;;;;;;;;;;;5.04;100.00;97121.06;4962231;28;20357;-66
2021/11/26 11:18:01;;;;;;;;;;;;;;;5.52;100.00;97107.19;4982682;28;19979;-68
2021/11/26 11:20:27;;;;;;;;;;;;;;;5.52;100.00;97106.34;5002836;28;20084;-66
2021/11/26 11:23:15;;;;;;;;;;;;;;;5.83;100.00;97096.47;4985326;28;20004;-66
2021/11/26 11:25:43;;;;;;;;;;;;;;;5.75;100.00;97093.44;4997106;28;19922;-67
2021/11/26 11:28:19;;;;;;;;;;;;;;;5.44;100.00;97089.63;5000265;28;20651;-68
2021/11/26 11:31:06;;;;;;;;;;;;;;;5.32;100.00;97085.03;4996942;28;20929;-67
2021/11/26 11:33:34;;;;;;;;;;;;;;;5.18;100.00;97087.34;4998865;28;19925;-68
2021/11/26 11:36:04;;;;;;;;;;;;;;;5.32;100.00;97085.03;4981162;28;19913;-69
2021/11/26 11:38:38;;;;;;;;;;;;;;;5.55;100.00;97078.13;4999717;28;20360;-68
2021/11/26 11:41:11;;;;;;;;;;;;;;;5.43;100.00;97072.66;4988813;28;19995;-68
2021/11/26 11:43:58;;;;;;;;;;;;;;;5.23;100.00;97059.91;5003408;28;19988;-68
2021/11/26 11:46:26;;;;;;;;;;;;;;;5.18;100.00;97047.34;5015894;28;19917;-68
2021/11/26 11:48:56;;;;;;;;;;;;;;;5.01;100.00;97040.38;4984037;28;19917;-67
2021/11/26 11:51:29;;;;;;;;;;;;;;;5.40;100.00;97037.03;5013638;28;19929;-67
2021/11/26 11:54:20;;;;;;;;;;;;;;;5.52;100.00;97029.75;5015691;28;19947;-68
2021/11/26 11:56:54;;;;;;;;;;;;;;;5.89;100.00;97020.47;5015374;28;20368;-68
2021/11/26 11:59:37;;;;;;;;;;;;;;;5.88;100.00;97014.53;5014769;28;19928;-69
2021/11/26 12:02:08;;;;;;;;;;;;;;;6.13;100.00;96996.38;5016116;28;19964;-67
2021/11/26 12:04:41;;;;;;;;;;;;;;;5.84;100.00;96990.84;5012450;28;20005;-68
2021/11/26 12:07:20;;;;;;;;;;;;;;;5.57;100.00;96987.00;5000204;28;20419;-68
2021/11/26 12:09:50;;;;;;;;;;;;;;;6.08;100.00;96988.94;5013179;28;20004;-66
2021/11/26 12:12:20;;;;;;;;;;;;;;;5.59;100.00;96982.66;5002044;28;19920;-69
2021/11/26 12:15:11;;;;;;;;;;;;;;;6.03;100.00;96972.97;4998003;28;19918;-68
2021/11/26 12:17:38;;;;;;;;;;;;;;;5.84;100.00;96967.88;5001606;28;19922;-68
2021/11/26 12:20:12;;;;;;;;;;;;;;;6.08;100.00;96967.66;5002344;28;19964;-68
2021/11/26 12:23:02;;;;;;;;;;;;;;;5.94;100.00;96959.78;4999247;28;20008;-69
2021/11/26 12:25:46;;;;;;;;;;;;;;;5.60;100.00;96951.91;4978832;28;19917;-68
2021/11/26 12:28:35;;;;;;;;;;;;;;;5.76;100.00;96948.69;4997877;28;19917;-68
2021/11/26 12:31:06;;;;;;;;;;;;;;;5.68;100.00;96937.97;5003458;28;20303;-69
2021/11/26 12:33:33;;;;;;;;;;;;;;;5.85;100.00;96920.16;4997819;28;19921;-68
2021/11/26 12:36:13;;;;;;;;;;;;;;;5.80;100.00;96917.00;4998821;28;20004;-68
2021/11/26 12:38:54;;;;;;;;;;;;;;;6.12;100.00;96915.50;5002554;28;20443;-69
2021/11/26 12:41:33;;;;;;;;;;;;;;;5.84;100.00;96903.19;5002087;28;20343;-68
2021/11/26 12:53:05;;;;;;;;;;;;;;;5.61;100.00;96871.03;4997692;28;20356;-69
2021/11/26 12:55:45;;;;;;;;;;;;;;;5.49;100.00;96858.84;4996602;28;19931;-68
2021/11/26 12:58:21;;;;;;;;;;;;;;;5.57;100.00;96859.34;4999179;28;19980;-68
2021/11/26 13:01:12;;;;;;;;;;;;;;;5.72;100.00;96848.38;5005388;28;20034;-68
2021/11/26 13:03:46;;;;;;;;;;;;;;;5.61;100.00;96832.72;5005446;28;20056;-68
2021/11/26 13:06:12;;;;;;;;;;;;;;;5.42;100.00;96820.00;4985557;28;19975;-68
2021/11/26 13:08:40;;;;;;;;;;;;;;;5.33;100.00;96820.44;4995827;28;19917;-69
2021/11/26 13:11:08;;;;;;;;;;;;;;;5.40;100.00;96809.03;4985381;28;19917;-68
2021/11/26 13:13:42;;;;;;;;;;;;;;;5.57;100.00;96806.53;5004341;28;19972;-68
2021/11/26 13:16:14;;;;;;;;;;;;;;;5.56;100.00;96787.00;5005207;28;19927;-68
2021/11/26 13:18:40;;;;;;;;;;;;;;;5.14;100.00;96779.63;5001987;28;20001;-68
2021/11/26 13:21:06;;;;;;;;;;;;;;;5.07;100.00;96776.53;5000695;28;20037;-69
2021/11/26 13:23:34;;;;;;;;;;;;;;;4.74;100.00;96766.94;4999787;28;19926;-68
2021/11/26 13:26:12;;;;;;;;;;;;;;;5.00;100.00;96763.22;4981169;28;20344;-68
2021/11/26 13:28:54;;;;;;;;;;;;;;;4.84;100.00;96752.06;4998616;28;19917;-69
2021/11/26 13:31:26;;;;;;;;;;;;;;;4.89;100.00;96745.03;4997374;28;20351;-69
2021/11/26 13:33:59;;;;;;;;;;;;;;;4.77;100.00;96740.50;4997290;28;19928;-68
2021/11/26 13:36:27;;;;;;;;;;;;;;;4.76;100.00;96743.94;4980770;28;19923;-69
2021/11/26 13:39:07;;;;;;;;;;;;;;;4.64;100.00;96735.13;5001051;28;19925;-68
2021/11/26 13:41:34;;;;;;;;;;;;;;;5.22;100.00;96731.59;4999833;28;19984;-68
2021/11/26 13:44:06;;;;;;;;;;;;;;;5.28;100.00;96726.22;5000363;28;19928;-69
2021/11/26 13:46:40;;;;;;;;;;;;;;;5.10;100.00;96719.44;4997367;28;19925;-68
2021/11/26 13:49:21;;;;;;;;;;;;;;;5.44;100.00;96711.81;4993991;28;20285;-68
2021/11/26 13:51:52;;;;;;;;;;;;;;;5.69;100.00;96720.84;4947533;28;19953;-69
2021/11/26 13:54:28;;;;;;;;;;;;;;;5.50;100.00;96710.72;4997280;28;19921;-68
2021/11/26 13:56:57;;;;;;;;;;;;;;;5.42;100.00;96707.69;5002681;28;20040;-68
2021/11/26 13:59:52;;;;;;;;;;;;;;;5.43;100.00;96701.72;4994643;28;20329;-68
2021/11/26 14:02:52;;;;;;;;;;;;;;;5.22;100.00;96685.69;5000333;28;20577;-68
2021/11/26 14:05:32;;;;;;;;;;;;;;;5.17;100.00;96687.63;4998514;28;19921;-69
2021/11/26 14:08:26;;;;;;;;;;;;;;;5.35;100.00;96683.38;5000135;28;19948;-68
2021/11/26 14:11:12;;;;;;;;;;;;;;;5.05;100.00;96670.38;4996925;28;19932;-69
2021/11/26 14:13:46;;;;;;;;;;;;;;;5.41;100.00;96673.69;4984204;28;19921;-69
2021/11/26 14:16:15;;;;;;;;;;;;;;;5.36;100.00;96673.09;4983249;28;20024;-69
2021/11/26 14:19:19;;;;;;;;;;;;;;;5.54;100.00;96658.63;5002035;28;19925;-68
2021/11/26 14:22:10;;;;;;;;;;;;;;;5.20;100.00;96651.75;4997837;28;19933;-68
2021/11/26 14:28:22;;;;;;;;;;;;;;;5.19;100.00;96655.22;5001857;28;20022;-69
2021/11/26 14:30:51;;;;;;;;;;;;;;;5.40;100.00;96641.41;4980564;28;19928;-69
2021/11/26 14:33:21;;;;;;;;;;;;;;;5.33;100.00;96637.50;4992622;28;19921;-68
2021/11/26 14:35:59;;;;;;;;;;;;;;;5.30;100.00;96624.91;4995435;28;19921;-68
2021/11/26 14:51:22;;;;;;;;;;;;;;;4.98;100.00;96600.97;4999180;28;20756;-69
2021/11/26 14:53:54;;;;;;;;;;;;;;;5.49;100.00;96585.72;5000275;28;19921;-69
2021/11/26 14:57:03;;;;;;;;;;;;;;;5.15;100.00;96592.47;4999667;28;19952;-70
2021/11/26 14:59:49;;;;;;;;;;;;;;;5.22;100.00;96578.50;4998300;28;20782;-69
2021/11/26 15:02:19;;;;;;;;;;;;;;;4.69;100.00;96571.75;4980707;28;19921;-70
2021/11/26 15:04:46;;;;;;;;;;;;;;;5.28;100.00;96573.13;4998742;28;20304;-70
2021/11/26 15:07:31;;;;;;;;;;;;;;;5.06;100.00;96577.63;4983745;28;19917;-69
2021/11/26 15:10:37;;;;;;;;;;;;;;;4.79;100.00;96570.44;4999098;28;19960;-70
2021/11/26 15:13:23;;;;;;;;;;;;;;;5.02;100.00;96559.94;4986242;28;19921;-69
2021/11/26 15:16:12;;;;;;;;;;;;;;;4.64;100.00;96560.94;4999392;28;19961;-69
2021/11/26 15:18:42;;;;;;;;;;;;;;;4.99;100.00;96554.97;4951881;28;19926;-69